Time;durP1;ratioP1;P1;durP2;ratioP2;P2;SDS_P1;SDS_P2;PMS_P1;PMS_P2;Temp;Humidity;BMP_temperature;BMP_pressure;BME280_temperature;BME280_humidity;BME280_pressure;Samples;Min_cycle;Max_cycle;Signal;HPM_P1;HPM_P2
2022/01/21 00:01:03;;;;;;;12.27;2.25;;;;;;;;;;5049136;28;20489;-65
2022/01/21 00:03:30;;;;;;;9.25;2.83;;;;;;;;;;5052369;28;20388;-65
2022/01/21 00:05:56;;;;;;;12.02;2.55;;;;;;;;;;5054267;28;20064;-67
2022/01/21 00:08:22;;;;;;;12.18;2.58;;;;;;;;;;5054210;28;20127;-65
2022/01/21 00:10:48;;;;;;;13.57;2.78;;;;;;;;;;5052425;28;20187;-64
2022/01/21 00:13:20;;;;;;;13.50;3.53;;;;;;;;;;5053523;28;20482;-65
2022/01/21 00:15:46;;;;;;;11.88;2.40;;;;;;;;;;5053933;28;20036;-65
2022/01/21 00:18:13;;;;;;;11.43;3.05;;;;;;;;;;5054258;28;20122;-67
2022/01/21 00:31:38;;;;;;;11.75;3.20;;;;;;;;;;5052528;28;20133;-65
2022/01/21 00:34:04;;;;;;;14.00;2.75;;;;;;;;;;5053804;28;20085;-64
2022/01/21 00:36:30;;;;;;;9.18;2.42;;;;;;;;;;5052412;28;20036;-65
2022/01/21 00:38:57;;;;;;;13.05;2.63;;;;;;;;;;5052592;28;20048;-65
2022/01/21 00:41:27;;;;;;;9.13;2.35;;;;;;;;;;5051868;28;20056;-65
2022/01/21 00:43:53;;;;;;;11.20;2.67;;;;;;;;;;5054576;28;20408;-66
2022/01/21 00:46:19;;;;;;;16.85;2.97;;;;;;;;;;5054674;28;20135;-65
2022/01/21 00:48:45;;;;;;;14.23;2.72;;;;;;;;;;5054741;28;20449;-64
2022/01/21 00:51:24;;;;;;;18.23;3.58;;;;;;;;;;5053997;28;20481;-64
2022/01/21 00:53:51;;;;;;;13.77;2.70;;;;;;;;;;5052691;28;20044;-63
2022/01/21 00:56:17;;;;;;;15.05;3.00;;;;;;;;;;5053807;28;20036;-65
2022/01/21 00:58:43;;;;;;;15.65;3.38;;;;;;;;;;5051556;28;20053;-64
2022/01/21 01:01:09;;;;;;;17.10;3.00;;;;;;;;;;5052321;28;20393;-64
2022/01/21 01:03:35;;;;;;;12.15;2.67;;;;;;;;;;5052990;28;20045;-65
2022/01/21 01:06:01;;;;;;;16.35;3.78;;;;;;;;;;5053047;28;20068;-64
2022/01/21 01:08:27;;;;;;;6.45;2.05;;;;;;;;;;5052488;28;20045;-65
2022/01/21 01:21:30;;;;;;;11.98;2.20;;;;;;;;;;5072697;28;20492;-65
2022/01/21 01:29:18;;;;;;;14.82;2.63;;;;;;;;;;5072875;28;20083;-64
2022/01/21 01:31:44;;;;;;;11.40;2.53;;;;;;;;;;5072350;28;20041;-63
2022/01/21 01:34:10;;;;;;;14.88;2.65;;;;;;;;;;5071453;28;20041;-64
2022/01/21 01:36:36;;;;;;;11.85;3.20;;;;;;;;;;5072789;28;20568;-65
2022/01/21 01:39:17;;;;;;;9.15;2.20;;;;;;;;;;5073248;28;20037;-65
2022/01/21 01:41:58;;;;;;;8.55;2.33;;;;;;;;;;5072553;28;20391;-65
2022/01/21 01:49:53;;;;;;;12.40;1.60;;;;;;;;;;5073106;28;20041;-64
2022/01/21 01:52:19;;;;;;;11.48;2.00;;;;;;;;;;5054278;28;20489;-64
2022/01/21 01:54:48;;;;;;;8.48;1.92;;;;;;;;;;5071984;28;20044;-65
2022/01/21 01:57:14;;;;;;;10.45;1.90;;;;;;;;;;5072017;28;20047;-64
2022/01/21 01:59:40;;;;;;;7.78;1.88;;;;;;;;;;5072289;28;20458;-65
2022/01/21 02:02:09;;;;;;;6.20;1.75;;;;;;;;;;5053661;28;20052;-63
2022/01/21 02:04:36;;;;;;;7.45;2.03;;;;;;;;;;5072016;28;20084;-64
2022/01/21 02:07:03;;;;;;;7.07;1.50;;;;;;;;;;5072403;28;20075;-64
2022/01/21 02:09:30;;;;;;;11.15;2.15;;;;;;;;;;5073468;28;20068;-64
2022/01/21 02:11:56;;;;;;;7.40;2.03;;;;;;;;;;5072013;28;20049;-65
2022/01/21 02:14:28;;;;;;;8.90;2.03;;;;;;;;;;5073236;28;20040;-65
2022/01/21 02:22:44;;;;;;;11.23;1.98;;;;;;;;;;5071415;28;20123;-64
2022/01/21 02:25:18;;;;;;;11.90;2.22;;;;;;;;;;5069430;28;20048;-65
2022/01/21 02:28:00;;;;;;;13.25;2.17;;;;;;;;;;5070217;28;20048;-63
2022/01/21 02:30:26;;;;;;;10.13;1.73;;;;;;;;;;5071188;28;20119;-64
2022/01/21 02:32:54;;;;;;;10.43;1.92;;;;;;;;;;5069557;28;20041;-65
2022/01/21 02:35:20;;;;;;;11.50;2.50;;;;;;;;;;5070177;28;20037;-64
2022/01/21 02:37:46;;;;;;;10.32;2.50;;;;;;;;;;5071469;28;20036;-64
2022/01/21 02:40:14;;;;;;;8.77;1.52;;;;;;;;;;5071488;28;20040;-65
2022/01/21 02:42:40;;;;;;;10.55;1.90;;;;;;;;;;5069428;28;20080;-64
2022/01/21 02:45:07;;;;;;;9.15;1.83;;;;;;;;;;5069913;28;20053;-65
2022/01/21 02:47:33;;;;;;;6.88;1.80;;;;;;;;;;5069805;28;20161;-64
2022/01/21 02:49:59;;;;;;;9.48;2.10;;;;;;;;;;5071778;28;20409;-64
2022/01/21 02:52:30;;;;;;;9.27;1.75;;;;;;;;;;5070092;28;20521;-65
2022/01/21 02:54:56;;;;;;;7.65;1.98;;;;;;;;;;5070600;28;20036;-65
2022/01/21 02:57:23;;;;;;;7.68;1.38;;;;;;;;;;5071104;28;20041;-65
2022/01/21 02:59:49;;;;;;;11.55;1.67;;;;;;;;;;5071052;28;20044;-65
2022/01/21 03:02:15;;;;;;;8.85;1.92;;;;;;;;;;5070194;28;20045;-67
2022/01/21 03:04:56;;;;;;;6.43;1.60;;;;;;;;;;5070806;28;20036;-65
2022/01/21 03:07:22;;;;;;;9.88;1.75;;;;;;;;;;5069666;28;20105;-63
2022/01/21 03:09:48;;;;;;;7.15;1.50;;;;;;;;;;5070492;28;20044;-65
2022/01/21 03:12:14;;;;;;;7.60;1.70;;;;;;;;;;5068295;28;20044;-66
2022/01/21 03:14:40;;;;;;;5.63;1.40;;;;;;;;;;5069194;28;20127;-65
2022/01/21 03:17:06;;;;;;;7.50;1.80;;;;;;;;;;5070508;28;20037;-65
2022/01/21 03:19:32;;;;;;;7.75;1.58;;;;;;;;;;5069334;28;20044;-66
2022/01/21 03:21:58;;;;;;;5.75;1.52;;;;;;;;;;5070209;28;20039;-65
2022/01/21 03:24:24;;;;;;;8.60;2.03;;;;;;;;;;5070216;28;20048;-64
2022/01/21 03:26:50;;;;;;;8.07;1.50;;;;;;;;;;5069540;28;20086;-65
2022/01/21 03:29:16;;;;;;;6.07;1.63;;;;;;;;;;5070318;28;20082;-64
2022/01/21 03:31:42;;;;;;;6.43;1.42;;;;;;;;;;5069895;28;20077;-65
2022/01/21 03:34:08;;;;;;;6.68;1.40;;;;;;;;;;5070770;28;20046;-65
2022/01/21 03:36:35;;;;;;;8.45;1.75;;;;;;;;;;5071425;28;20475;-64
2022/01/21 03:39:02;;;;;;;4.95;1.40;;;;;;;;;;5076136;28;20125;-64
2022/01/21 03:41:28;;;;;;;5.18;1.70;;;;;;;;;;5074875;28;20049;-65
2022/01/21 03:43:54;;;;;;;7.53;1.50;;;;;;;;;;5076337;28;20033;-65
2022/01/21 03:46:20;;;;;;;5.90;1.52;;;;;;;;;;5074109;28;20084;-65
2022/01/21 03:48:49;;;;;;;6.38;2.13;;;;;;;;;;5074314;28;20044;-65
2022/01/21 03:51:15;;;;;;;14.32;1.85;;;;;;;;;;5093896;28;20143;-65
2022/01/21 03:53:41;;;;;;;11.48;1.77;;;;;;;;;;5092501;28;20040;-65
2022/01/21 03:56:07;;;;;;;8.60;1.60;;;;;;;;;;5094457;28;20546;-65
2022/01/21 03:58:33;;;;;;;6.68;1.40;;;;;;;;;;5094329;28;20035;-65
2022/01/21 04:00:59;;;;;;;3.85;1.25;;;;;;;;;;5092767;28;20477;-65
2022/01/21 04:03:26;;;;;;;7.53;1.55;;;;;;;;;;5094131;28;20445;-64
2022/01/21 04:05:53;;;;;;;3.72;1.60;;;;;;;;;;5093990;28;20047;-65
2022/01/21 04:08:19;;;;;;;8.70;1.58;;;;;;;;;;5093678;28;20032;-66
2022/01/21 04:10:48;;;;;;;5.43;1.85;;;;;;;;;;5094093;28;20044;-65
2022/01/21 04:13:16;;;;;;;8.65;1.60;;;;;;;;;;5093852;28;20040;-64
2022/01/21 04:15:43;;;;;;;7.15;1.40;;;;;;;;;;5094573;28;20044;-66
2022/01/21 04:18:13;;;;;;;4.15;1.52;;;;;;;;;;5225773;22;20119;-63
2022/01/21 04:20:40;;;;;;;9.82;2.00;;;;;;;;;;5094841;28;20048;-64
2022/01/21 04:23:06;;;;;;;7.53;1.88;;;;;;;;;;5093386;28;20044;-65
2022/01/21 04:25:32;;;;;;;7.80;2.25;;;;;;;;;;5093837;28;20384;-65
2022/01/21 04:27:58;;;;;;;6.30;2.20;;;;;;;;;;5092694;28;20044;-63
2022/01/21 04:30:24;;;;;;;6.68;1.60;;;;;;;;;;5092611;28;20052;-64
2022/01/21 04:32:50;;;;;;;8.50;2.45;;;;;;;;;;5093497;28;20036;-64
2022/01/21 04:35:16;;;;;;;6.90;1.77;;;;;;;;;;5093311;28;20416;-65
2022/01/21 04:38:06;;;;;;;8.65;2.00;;;;;;;;;;5092781;28;20055;-64
2022/01/21 04:40:31;;;;;;;6.47;1.50;;;;;;;;;;5093510;28;20051;-64
2022/01/21 04:48:28;;;;;;;12.85;1.90;;;;;;;;;;5092500;28;20048;-64
2022/01/21 04:50:59;;;;;;;6.75;1.52;;;;;;;;;;5093175;28;20366;-65
2022/01/21 04:53:26;;;;;;;10.68;2.75;;;;;;;;;;5093751;28;20412;-65
2022/01/21 04:55:52;;;;;;;7.78;2.15;;;;;;;;;;5093506;28;20043;-66
2022/01/21 04:58:19;;;;;;;8.85;2.50;;;;;;;;;;5091665;28;20047;-64
2022/01/21 05:00:44;;;;;;;7.63;2.03;;;;;;;;;;5092190;28;20043;-64
2022/01/21 05:03:11;;;;;;;12.60;1.98;;;;;;;;;;5092889;28;20036;-64
2022/01/21 05:05:38;;;;;;;11.90;2.17;;;;;;;;;;5091844;28;20063;-64
2022/01/21 05:08:07;;;;;;;9.07;2.13;;;;;;;;;;5092979;28;20044;-64
2022/01/21 05:10:35;;;;;;;16.38;2.80;;;;;;;;;;5091891;28;20044;-64
2022/01/21 05:13:01;;;;;;;9.90;2.63;;;;;;;;;;5091014;28;20036;-63
2022/01/21 05:18:31;;;;;;;9.80;2.40;;;;;;;;;;5033727;28;20179;-64
2022/01/21 05:20:58;;;;;;;11.30;2.22;;;;;;;;;;5033789;28;20048;-63
2022/01/21 05:23:24;;;;;;;15.35;2.28;;;;;;;;;;5070018;28;20040;-64
2022/01/21 05:25:56;;;;;;;12.77;2.60;;;;;;;;;;5093060;28;20032;-65
2022/01/21 05:28:22;;;;;;;11.70;2.35;;;;;;;;;;5093111;28;20400;-65
2022/01/21 05:30:48;;;;;;;8.68;2.10;;;;;;;;;;5093023;28;20032;-64
2022/01/21 05:33:14;;;;;;;10.18;2.05;;;;;;;;;;5087907;28;20040;-65
2022/01/21 05:35:40;;;;;;;7.13;1.92;;;;;;;;;;5090858;28;20519;-65
2022/01/21 05:38:06;;;;;;;5.90;2.00;;;;;;;;;;5092230;28;20485;-64
2022/01/21 05:40:32;;;;;;;11.88;2.45;;;;;;;;;;5092546;28;20036;-64
2022/01/21 05:42:58;;;;;;;10.25;2.00;;;;;;;;;;5090883;28;20373;-65
2022/01/21 05:48:09;;;;;;;9.73;2.17;;;;;;;;;;5091948;28;20044;-64
2022/01/21 05:50:35;;;;;;;11.52;1.90;;;;;;;;;;5092837;28;20044;-65
2022/01/21 05:53:07;;;;;;;12.00;2.08;;;;;;;;;;5091728;28;20047;-63
2022/01/21 05:55:33;;;;;;;10.05;2.15;;;;;;;;;;5092400;28;20047;-64
2022/01/21 05:57:59;;;;;;;6.72;2.15;;;;;;;;;;5092034;28;20043;-65
2022/01/21 06:00:25;;;;;;;13.77;2.53;;;;;;;;;;5088175;28;20181;-65
2022/01/21 06:02:51;;;;;;;11.88;1.73;;;;;;;;;;5089058;28;20043;-66
2022/01/21 06:05:17;;;;;;;14.80;2.75;;;;;;;;;;5112670;28;20035;-66
2022/01/21 06:07:43;;;;;;;6.53;1.90;;;;;;;;;;5112050;28;20027;-65
2022/01/21 06:10:10;;;;;;;10.82;2.22;;;;;;;;;;5087260;28;20036;-65
2022/01/21 06:13:06;;;;;;;8.52;1.67;;;;;;;;;;5088915;28;20076;-66
2022/01/21 06:15:59;;;;;;;9.02;2.00;;;;;;;;;;5078331;28;20116;-63
2022/01/21 06:18:25;;;;;;;10.93;1.77;;;;;;;;;;5093366;28;20590;-65
2022/01/21 06:20:52;;;;;;;11.30;2.28;;;;;;;;;;5110313;28;20040;-65
2022/01/21 06:23:18;;;;;;;5.03;1.90;;;;;;;;;;5107581;28;20039;-65
2022/01/21 06:25:44;;;;;;;9.25;2.78;;;;;;;;;;5108338;28;20040;-65
2022/01/21 06:28:11;;;;;;;8.63;1.80;;;;;;;;;;5112123;28;20506;-66
2022/01/21 06:30:37;;;;;;;5.60;1.63;;;;;;;;;;5112217;28;20471;-65
2022/01/21 06:33:03;;;;;;;9.05;2.30;;;;;;;;;;5102558;28;20039;-65
2022/01/21 06:35:29;;;;;;;12.70;2.25;;;;;;;;;;5106662;28;20039;-65
2022/01/21 06:37:55;;;;;;;13.82;2.30;;;;;;;;;;5112124;28;20038;-64
2022/01/21 06:40:21;;;;;;;13.25;2.47;;;;;;;;;;5110084;28;20035;-64
2022/01/21 06:42:51;;;;;;;8.07;2.10;;;;;;;;;;5108596;28;20104;-64
2022/01/21 06:45:18;;;;;;;10.57;1.75;;;;;;;;;;5110669;28;20186;-65
2022/01/21 06:47:44;;;;;;;10.65;2.28;;;;;;;;;;5109815;28;20078;-64
2022/01/21 06:50:10;;;;;;;6.28;1.83;;;;;;;;;;5109654;28;20039;-64
2022/01/21 06:52:37;;;;;;;8.30;1.88;;;;;;;;;;5110041;28;20047;-64
2022/01/21 06:55:03;;;;;;;8.73;2.00;;;;;;;;;;5111068;27;20039;-64
2022/01/21 06:57:29;;;;;;;8.55;1.60;;;;;;;;;;5111723;28;20165;-64
2022/01/21 06:59:56;;;;;;;7.00;2.45;;;;;;;;;;5111539;28;20048;-64
2022/01/21 07:02:22;;;;;;;8.68;1.95;;;;;;;;;;5111616;28;20070;-65
2022/01/21 07:04:48;;;;;;;7.05;2.00;;;;;;;;;;5111257;28;20260;-65
2022/01/21 07:07:14;;;;;;;11.95;1.88;;;;;;;;;;5093592;28;20043;-63
2022/01/21 07:09:41;;;;;;;11.00;1.85;;;;;;;;;;5090538;28;20293;-64
2022/01/21 07:12:07;;;;;;;11.20;1.98;;;;;;;;;;5087931;28;20590;-65
2022/01/21 07:14:36;;;;;;;10.02;2.47;;;;;;;;;;5090928;28;20101;-65
2022/01/21 07:17:03;;;;;;;8.05;1.63;;;;;;;;;;5091149;28;20593;-65
2022/01/21 07:19:29;;;;;;;9.48;2.20;;;;;;;;;;5090759;28;20036;-65
2022/01/21 07:21:55;;;;;;;8.93;1.40;;;;;;;;;;5090006;28;20048;-65
2022/01/21 07:24:21;;;;;;;11.40;1.95;;;;;;;;;;5089117;28;20050;-65
2022/01/21 07:26:47;;;;;;;8.02;1.85;;;;;;;;;;5087750;28;20086;-64
2022/01/21 07:29:13;;;;;;;9.77;1.90;;;;;;;;;;5098967;28;20044;-65
2022/01/21 07:31:39;;;;;;;4.95;1.80;;;;;;;;;;5089142;28;21791;-65
2022/01/21 07:34:06;;;;;;;6.70;1.92;;;;;;;;;;5090664;28;20094;-65
2022/01/21 07:36:33;;;;;;;7.38;1.58;;;;;;;;;;5090462;28;20040;-65
2022/01/21 07:38:59;;;;;;;7.28;2.13;;;;;;;;;;5090907;28;20040;-65
2022/01/21 07:41:25;;;;;;;9.23;2.00;;;;;;;;;;5091055;28;20036;-64
2022/01/21 07:43:52;;;;;;;8.27;2.55;;;;;;;;;;5091420;28;20170;-65
2022/01/21 07:46:19;;;;;;;8.23;1.90;;;;;;;;;;5086566;28;20100;-65
2022/01/21 07:48:45;;;;;;;10.93;2.10;;;;;;;;;;5090942;28;20552;-64
2022/01/21 07:51:11;;;;;;;6.97;2.13;;;;;;;;;;5090597;28;20148;-64
2022/01/21 07:53:37;;;;;;;9.43;1.73;;;;;;;;;;5090880;28;20036;-65
2022/01/21 07:56:04;;;;;;;6.80;2.15;;;;;;;;;;5090687;28;20036;-64
2022/01/21 07:58:30;;;;;;;9.38;1.90;;;;;;;;;;5090951;28;20032;-66
2022/01/21 08:00:56;;;;;;;10.70;2.03;;;;;;;;;;5089355;28;20048;-64
2022/01/21 08:03:24;;;;;;;9.82;2.40;;;;;;;;;;5090530;28;20404;-64
2022/01/21 08:05:51;;;;;;;11.10;2.35;;;;;;;;;;5088914;28;20396;-65
2022/01/21 08:08:17;;;;;;;9.77;2.33;;;;;;;;;;5090375;28;20040;-64
2022/01/21 08:10:43;;;;;;;10.27;2.58;;;;;;;;;;5090661;28;20046;-65
2022/01/21 08:13:09;;;;;;;8.93;2.45;;;;;;;;;;5090104;28;20092;-64
2022/01/21 08:15:35;;;;;;;8.07;2.20;;;;;;;;;;5090528;28;20039;-65
2022/01/21 08:18:01;;;;;;;8.63;2.05;;;;;;;;;;5089120;28;20036;-65
2022/01/21 08:20:28;;;;;;;10.48;2.25;;;;;;;;;;5090352;28;20048;-66
2022/01/21 08:22:54;;;;;;;11.48;2.55;;;;;;;;;;5089940;28;20123;-64
2022/01/21 08:25:20;;;;;;;6.20;2.40;;;;;;;;;;5093493;28;20071;-64
2022/01/21 08:27:46;;;;;;;10.70;2.30;;;;;;;;;;5094370;28;20043;-65
2022/01/21 08:30:13;;;;;;;9.40;2.30;;;;;;;;;;5092702;28;20131;-65
2022/01/21 08:32:39;;;;;;;10.68;2.50;;;;;;;;;;5094076;28;20384;-64
2022/01/21 08:35:06;;;;;;;10.18;2.47;;;;;;;;;;5093321;28;20123;-65
2022/01/21 08:37:32;;;;;;;12.18;2.75;;;;;;;;;;5093944;28;20488;-64
2022/01/21 08:39:58;;;;;;;11.65;6.18;;;;;;;;;;5093732;28;20123;-66
2022/01/21 08:42:24;;;;;;;14.75;7.28;;;;;;;;;;5093368;28;20135;-65
2022/01/21 08:44:50;;;;;;;25.50;14.40;;;;;;;;;;5093741;28;20040;-65
2022/01/21 08:47:16;;;;;;;22.35;13.55;;;;;;;;;;5093569;28;20100;-66
2022/01/21 08:49:44;;;;;;;20.63;11.70;;;;;;;;;;5094066;28;20136;-65
2022/01/21 08:52:18;;;;;;;16.05;8.85;;;;;;;;;;5093545;28;20036;-64
2022/01/21 08:54:45;;;;;;;13.02;8.10;;;;;;;;;;5093904;28;20044;-65
2022/01/21 08:57:11;;;;;;;9.93;5.65;;;;;;;;;;5093934;28;20044;-64
2022/01/21 08:59:37;;;;;;;8.50;2.75;;;;;;;;;;5092090;28;20183;-65
2022/01/21 09:02:03;;;;;;;9.73;2.95;;;;;;;;;;5091359;28;20297;-65
2022/01/21 09:04:29;;;;;;;14.48;2.80;;;;;;;;;;5085640;28;20037;-64
2022/01/21 09:06:55;;;;;;;8.75;2.85;;;;;;;;;;5093728;28;20297;-64
2022/01/21 09:09:21;;;;;;;9.73;2.33;;;;;;;;;;5113361;28;20043;-64
2022/01/21 09:11:50;;;;;;;8.75;2.85;;;;;;;;;;5112903;28;20031;-64
2022/01/21 09:14:16;;;;;;;8.60;2.50;;;;;;;;;;5113765;28;20118;-65
2022/01/21 09:16:42;;;;;;;10.55;2.83;;;;;;;;;;5113548;28;20392;-64
2022/01/21 09:19:09;;;;;;;9.02;2.28;;;;;;;;;;5113794;27;20048;-64
2022/01/21 09:21:36;;;;;;;14.15;3.00;;;;;;;;;;5113082;28;20507;-65
2022/01/21 09:24:03;;;;;;;10.55;2.53;;;;;;;;;;5112778;28;20039;-65
2022/01/21 09:26:29;;;;;;;7.38;2.10;;;;;;;;;;5112653;28;20042;-64
2022/01/21 09:28:55;;;;;;;7.93;2.00;;;;;;;;;;5113098;28;20063;-65
2022/01/21 09:31:21;;;;;;;8.48;2.78;;;;;;;;;;5112749;28;20048;-64
2022/01/21 09:33:48;;;;;;;10.90;2.75;;;;;;;;;;5113299;28;20032;-64
2022/01/21 09:36:19;;;;;;;9.48;2.25;;;;;;;;;;5086388;28;20036;-64
2022/01/21 09:38:45;;;;;;;13.15;2.83;;;;;;;;;;5084463;28;20032;-64
2022/01/21 09:41:11;;;;;;;12.40;2.58;;;;;;;;;;5082214;28;20412;-65
2022/01/21 09:43:48;;;;;;;10.88;2.78;;;;;;;;;;5083907;28;20040;-64
2022/01/21 09:46:14;;;;;;;8.77;2.67;;;;;;;;;;5075302;28;20075;-64
2022/01/21 09:48:53;;;;;;;8.68;2.67;;;;;;;;;;5089256;28;20071;-65
2022/01/21 09:51:20;;;;;;;14.18;2.95;;;;;;;;;;5092924;28;20040;-66
2022/01/21 09:53:47;;;;;;;12.50;2.65;;;;;;;;;;5095057;28;20510;-64
2022/01/21 09:56:14;;;;;;;18.05;3.20;;;;;;;;;;5092212;28;20035;-63
2022/01/21 09:59:08;;;;;;;10.57;3.00;;;;;;;;;;5087215;28;20039;-64
2022/01/21 10:01:35;;;;;;;8.50;2.85;;;;;;;;;;5083735;28;20493;-65
2022/01/21 10:04:01;;;;;;;12.93;2.65;;;;;;;;;;5077380;28;20473;-64
2022/01/21 10:06:28;;;;;;;10.15;2.08;;;;;;;;;;5081428;28;20040;-64
2022/01/21 10:08:55;;;;;;;12.38;2.78;;;;;;;;;;5096073;28;20131;-68
2022/01/21 10:11:21;;;;;;;14.55;2.85;;;;;;;;;;5104037;28;20032;-64
2022/01/21 10:13:48;;;;;;;12.55;2.72;;;;;;;;;;5113100;28;20412;-64
2022/01/21 10:16:14;;;;;;;11.07;2.63;;;;;;;;;;5112487;28;20031;-65
2022/01/21 10:18:58;;;;;;;11.15;2.47;;;;;;;;;;5111400;28;20449;-65
2022/01/21 10:21:28;;;;;;;10.73;2.55;;;;;;;;;;5111087;28;20384;-65
2022/01/21 10:23:54;;;;;;;9.15;2.42;;;;;;;;;;5095324;28;20081;-65
2022/01/21 10:26:23;;;;;;;11.52;2.50;;;;;;;;;;5082637;28;20435;-65
2022/01/21 10:28:54;;;;;;;12.38;2.47;;;;;;;;;;5083959;28;20048;-65
2022/01/21 10:31:20;;;;;;;9.55;2.75;;;;;;;;;;5079162;27;20423;-65
2022/01/21 10:33:53;;;;;;;11.73;2.13;;;;;;;;;;5086264;28;20044;-65
2022/01/21 10:36:56;;;;;;;10.83;2.60;;;;;;;;;;5088205;28;20147;-64
2022/01/21 10:39:18;;;;;;;10.95;2.40;;;;;;;;;;5082816;28;20392;-64
2022/01/21 10:41:46;;;;;;;6.72;1.90;;;;;;;;;;5090840;28;20052;-65
2022/01/21 10:44:14;;;;;;;8.85;2.08;;;;;;;;;;5091472;28;20059;-65
2022/01/21 10:46:41;;;;;;;6.75;1.67;;;;;;;;;;5082852;28;20052;-65
2022/01/21 10:49:12;;;;;;;9.88;2.20;;;;;;;;;;5081651;28;20103;-65
2022/01/21 10:51:39;;;;;;;8.43;2.00;;;;;;;;;;5111315;28;20047;-65
2022/01/21 10:54:17;;;;;;;8.20;2.00;;;;;;;;;;5111908;28;20043;-64
2022/01/21 10:57:02;;;;;;;5.82;1.77;;;;;;;;;;5111788;28;20042;-64
2022/01/21 10:59:51;;;;;;;5.90;1.90;;;;;;;;;;5110431;28;20035;-65
2022/01/21 11:02:36;;;;;;;13.57;3.22;;;;;;;;;;5111191;28;20523;-64
2022/01/21 11:05:06;;;;;;;7.18;2.72;;;;;;;;;;5111451;28;20047;-65
2022/01/21 11:07:49;;;;;;;10.90;3.03;;;;;;;;;;5111615;28;20039;-65
2022/01/21 11:10:37;;;;;;;8.98;3.20;;;;;;;;;;5111439;28;20036;-64
2022/01/21 11:13:23;;;;;;;15.88;4.03;;;;;;;;;;5110994;28;20039;-65
2022/01/21 11:15:53;;;;;;;12.85;2.90;;;;;;;;;;5111590;28;20071;-65
2022/01/21 11:18:20;;;;;;;9.80;3.42;;;;;;;;;;5111977;28;20039;-65
2022/01/21 11:20:49;;;;;;;12.38;2.95;;;;;;;;;;5111680;28;20059;-65
2022/01/21 11:23:17;;;;;;;12.60;2.63;;;;;;;;;;5110179;28;20035;-65
2022/01/21 11:25:47;;;;;;;13.93;2.63;;;;;;;;;;5111303;28;20044;-63
2022/01/21 11:28:18;;;;;;;13.18;2.92;;;;;;;;;;5111886;28;20074;-64
2022/01/21 11:30:44;;;;;;;14.02;2.92;;;;;;;;;;5110955;28;20104;-64
2022/01/21 11:33:10;;;;;;;5.40;2.20;;;;;;;;;;5112041;28;20123;-64
2022/01/21 11:35:37;;;;;;;7.47;2.42;;;;;;;;;;5112381;28;20031;-64
2022/01/21 11:41:16;;;;;;;10.68;2.40;;;;;;;;;;5110093;28;20608;-65
2022/01/21 11:43:49;;;;;;;8.77;2.13;;;;;;;;;;5111610;28;20039;-64
2022/01/21 11:48:50;;;;;;;11.00;2.90;;;;;;;;;;5098905;28;20123;-64
2022/01/21 11:51:19;;;;;;;14.80;3.03;;;;;;;;;;5090738;28;20044;-64
2022/01/21 11:53:45;;;;;;;11.50;2.60;;;;;;;;;;5090710;28;20043;-65
2022/01/21 11:56:30;;;;;;;19.20;3.80;;;;;;;;;;5090818;28;20043;-65
2022/01/21 11:59:10;;;;;;;14.38;3.13;;;;;;;;;;5092505;28;20040;-65
2022/01/21 12:01:40;;;;;;;13.57;3.50;;;;;;;;;;5094266;28;20036;-64
2022/01/21 12:04:06;;;;;;;15.63;3.40;;;;;;;;;;5087236;28;20070;-64
2022/01/21 12:06:33;;;;;;;13.18;3.33;;;;;;;;;;5079100;28;20421;-64
2022/01/21 12:09:01;;;;;;;6.50;2.90;;;;;;;;;;5085919;28;20526;-65
2022/01/21 12:11:36;;;;;;;12.90;3.60;;;;;;;;;;5085316;28;20049;-65
2022/01/21 12:14:22;;;;;;;15.90;2.80;;;;;;;;;;5089208;28;20037;-64
2022/01/21 12:16:57;;;;;;;16.20;2.88;;;;;;;;;;5088453;28;20032;-64
2022/01/21 12:19:35;;;;;;;13.52;3.05;;;;;;;;;;5091492;28;20089;-65
2022/01/21 12:22:12;;;;;;;12.80;2.45;;;;;;;;;;5083712;28;20058;-66
2022/01/21 12:24:50;;;;;;;9.00;2.33;;;;;;;;;;5089007;28;20341;-66
2022/01/21 12:27:16;;;;;;;12.15;3.67;;;;;;;;;;5105019;28;20124;-66
2022/01/21 12:29:42;;;;;;;11.00;2.67;;;;;;;;;;5098118;28;20101;-65
2022/01/21 12:32:17;;;;;;;8.13;2.30;;;;;;;;;;5094132;28;20123;-65
2022/01/21 12:35:00;;;;;;;9.88;2.60;;;;;;;;;;5093979;28;20503;-66
2022/01/21 12:37:38;;;;;;;12.60;2.40;;;;;;;;;;5080818;28;20478;-64
2022/01/21 12:40:05;;;;;;;9.38;2.15;;;;;;;;;;5100487;28;20039;-64
2022/01/21 12:42:35;;;;;;;8.23;2.15;;;;;;;;;;5094456;28;20047;-65
2022/01/21 12:45:07;;;;;;;13.98;2.40;;;;;;;;;;5094242;28;20524;-65
2022/01/21 12:47:40;;;;;;;10.40;2.28;;;;;;;;;;5094300;28;20040;-64
2022/01/21 12:50:09;;;;;;;6.38;2.00;;;;;;;;;;5094048;28;20123;-67
2022/01/21 12:53:17;;;;;;;5.80;1.90;;;;;;;;;;5092571;28;20362;-65
2022/01/21 12:58:17;;;;;;;8.88;2.17;;;;;;;;;;5086140;28;20564;-65
2022/01/21 13:00:44;;;;;;;8.68;2.10;;;;;;;;;;5093865;28;20469;-65
2022/01/21 13:03:15;;;;;;;7.18;1.98;;;;;;;;;;5093684;28;20086;-64
2022/01/21 13:05:44;;;;;;;8.25;2.03;;;;;;;;;;5093188;28;20098;-64
2022/01/21 13:08:27;;;;;;;10.55;2.10;;;;;;;;;;5093715;28;20097;-64
2022/01/21 13:10:53;;;;;;;12.20;2.35;;;;;;;;;;5091713;28;20048;-66
2022/01/21 13:13:35;;;;;;;6.25;1.55;;;;;;;;;;5092190;28;20131;-66
2022/01/21 13:16:01;;;;;;;11.38;1.70;;;;;;;;;;5093654;28;20409;-66
2022/01/21 13:18:32;;;;;;;6.57;1.90;;;;;;;;;;5093971;28;20047;-66
2022/01/21 13:21:04;;;;;;;11.45;2.35;;;;;;;;;;5093416;28;20434;-65
2022/01/21 13:23:58;;;;;;;6.33;1.60;;;;;;;;;;5092419;28;20071;-66
2022/01/21 13:26:26;;;;;;;9.45;1.67;;;;;;;;;;5088616;28;20094;-65
2022/01/21 13:28:58;;;;;;;6.88;1.98;;;;;;;;;;5098889;28;20063;-64
2022/01/21 13:31:25;;;;;;;8.18;1.75;;;;;;;;;;5113206;28;20044;-64
2022/01/21 13:33:51;;;;;;;5.72;1.60;;;;;;;;;;5114147;28;20473;-65
2022/01/21 13:36:36;;;;;;;9.30;2.10;;;;;;;;;;5113357;28;20082;-66
2022/01/21 13:39:08;;;;;;;9.02;1.70;;;;;;;;;;5113735;28;20122;-66
2022/01/21 13:41:46;;;;;;;9.27;1.63;;;;;;;;;;5111982;28;20079;-65
2022/01/21 13:44:11;;;;;;;9.77;2.05;;;;;;;;;;5113892;28;20494;-66
2022/01/21 13:46:39;;;;;;;10.43;2.67;;;;;;;;;;5113083;28;20051;-65
2022/01/21 13:49:05;;;;;;;10.23;2.13;;;;;;;;;;5112507;28;20042;-65
2022/01/21 13:51:31;;;;;;;10.93;2.95;;;;;;;;;;5112940;28;20046;-65
2022/01/21 13:54:05;;;;;;;8.40;2.00;;;;;;;;;;5113456;28;20036;-68
2022/01/21 13:56:31;;;;;;;9.82;2.58;;;;;;;;;;5113237;28;20047;-66
2022/01/21 13:58:58;;;;;;;9.20;2.03;;;;;;;;;;5113144;28;20035;-65
2022/01/21 14:01:27;;;;;;;11.05;2.28;;;;;;;;;;5112764;28;20064;-67
2022/01/21 14:03:55;;;;;;;9.40;1.90;;;;;;;;;;5112025;28;20044;-65
2022/01/21 14:06:22;;;;;;;12.75;2.25;;;;;;;;;;5112900;28;20039;-64
2022/01/21 14:08:49;;;;;;;10.63;2.85;;;;;;;;;;5112470;28;20040;-64
2022/01/21 14:11:36;;;;;;;9.60;2.50;;;;;;;;;;5112199;28;20043;-64
2022/01/21 14:14:07;;;;;;;9.93;2.08;;;;;;;;;;5111425;28;20048;-65
2022/01/21 14:16:39;;;;;;;8.90;2.13;;;;;;;;;;5112234;28;20403;-65
2022/01/21 14:19:06;;;;;;;9.40;2.15;;;;;;;;;;5111064;28;20075;-65
2022/01/21 14:21:34;;;;;;;8.25;2.38;;;;;;;;;;5111416;28;20044;-66
2022/01/21 14:24:10;;;;;;;15.63;2.50;;;;;;;;;;5112549;28;20126;-65
2022/01/21 14:26:45;;;;;;;10.25;2.60;;;;;;;;;;5111077;28;20043;-65
2022/01/21 14:29:11;;;;;;;9.88;2.88;;;;;;;;;;5110890;28;20048;-65
2022/01/21 14:31:39;;;;;;;11.80;2.28;;;;;;;;;;5111653;28;20039;-65
2022/01/21 14:34:11;;;;;;;9.98;2.13;;;;;;;;;;5112447;28;20039;-65
2022/01/21 14:36:38;;;;;;;10.48;2.35;;;;;;;;;;5112528;28;20075;-65
2022/01/21 14:39:09;;;;;;;12.23;3.20;;;;;;;;;;5113019;28;20035;-66
2022/01/21 14:41:39;;;;;;;14.05;3.08;;;;;;;;;;5108457;28;20039;-65
2022/01/21 14:44:05;;;;;;;10.05;2.70;;;;;;;;;;5094545;28;20445;-65
2022/01/21 14:46:31;;;;;;;9.80;2.35;;;;;;;;;;5097762;28;20118;-65
2022/01/21 14:48:58;;;;;;;10.45;3.13;;;;;;;;;;5092013;28;20043;-65
2022/01/21 14:51:35;;;;;;;13.55;2.92;;;;;;;;;;5092005;28;20040;-64
2022/01/21 14:54:14;;;;;;;11.52;2.47;;;;;;;;;;5092160;28;20446;-65
2022/01/21 14:56:44;;;;;;;12.48;3.03;;;;;;;;;;5090883;28;20040;-65
2022/01/21 14:59:15;;;;;;;9.02;3.00;;;;;;;;;;5092576;28;20047;-66
2022/01/21 15:01:54;;;;;;;18.60;4.70;;;;;;;;;;5091898;28;20561;-65
2022/01/21 15:04:21;;;;;;;16.35;2.90;;;;;;;;;;5091789;28;20047;-65
2022/01/21 15:06:50;;;;;;;18.13;3.40;;;;;;;;;;5091783;28;20385;-65
2022/01/21 15:09:28;;;;;;;8.73;2.50;;;;;;;;;;5091895;28;20040;-64
2022/01/21 15:11:59;;;;;;;9.23;2.42;;;;;;;;;;5091354;28;20055;-64
2022/01/21 15:14:33;;;;;;;10.55;2.90;;;;;;;;;;5090876;28;20123;-64
2022/01/21 15:17:12;;;;;;;8.32;2.65;;;;;;;;;;5090341;28;20055;-64
2022/01/21 15:19:38;;;;;;;8.55;2.80;;;;;;;;;;5091678;28;20488;-65
2022/01/21 15:22:09;;;;;;;13.40;2.47;;;;;;;;;;5091268;28;20043;-65
2022/01/21 15:24:35;;;;;;;13.40;2.67;;;;;;;;;;5090996;28;20512;-65
2022/01/21 15:27:01;;;;;;;12.88;2.67;;;;;;;;;;5098823;28;20551;-66
2022/01/21 15:29:27;;;;;;;13.57;2.95;;;;;;;;;;5091905;28;20491;-66
2022/01/21 15:31:53;;;;;;;11.95;2.92;;;;;;;;;;5090156;28;20066;-65
2022/01/21 15:34:19;;;;;;;13.00;2.83;;;;;;;;;;5073252;28;20556;-65
2022/01/21 15:36:46;;;;;;;10.57;2.70;;;;;;;;;;5090593;28;20032;-64
2022/01/21 15:39:14;;;;;;;11.43;3.33;;;;;;;;;;5090322;28;20040;-65
2022/01/21 15:41:40;;;;;;;11.48;2.55;;;;;;;;;;5091297;28;20064;-64
2022/01/21 15:44:06;;;;;;;11.32;2.53;;;;;;;;;;5091333;28;20560;-64